Time;durP1;ratioP1;P1;durP2;ratioP2;P2;SDS_P1;SDS_P2;PMS_P1;PMS_P2;Temp;Humidity;BMP_temperature;BMP_pressure;BME280_temperature;BME280_humidity;BME280_pressure;Samples;Min_cycle;Max_cycle;Signal;HPM_P1;HPM_P2
2024/04/09 00:02:16;;;;;;;8.10;6.17;;;18.70;99.90;;;;;;5482598;26;20742;-58
2024/04/09 00:04:42;;;;;;;8.33;6.47;;;18.60;99.90;;;;;;5478460;26;20361;-58
2024/04/09 00:07:08;;;;;;;12.30;6.83;;;18.70;99.90;;;;;;5482195;26;20237;-56
2024/04/09 00:09:42;;;;;;;8.53;6.00;;;18.70;99.90;;;;;;5462838;26;20237;-55
2024/04/09 00:12:11;;;;;;;10.03;6.93;;;18.60;99.90;;;;;;5474792;26;20475;-56
2024/04/09 00:14:37;;;;;;;9.20;6.00;;;18.60;99.90;;;;;;5481190;26;20456;-55
2024/04/09 00:17:05;;;;;;;12.20;6.33;;;18.60;99.90;;;;;;5485091;26;20460;-56
2024/04/09 00:19:31;;;;;;;7.50;5.40;;;18.60;99.90;;;;;;5485515;26;20471;-57
2024/04/09 00:21:59;;;;;;;6.70;5.80;;;18.60;99.90;;;;;;5485395;26;20517;-56
2024/04/09 00:24:25;;;;;;;9.13;6.40;;;18.60;99.90;;;;;;5486062;26;20570;-57
2024/04/09 00:26:51;;;;;;;9.73;6.23;;;18.60;99.90;;;;;;5485449;26;20884;-58
2024/04/09 00:29:17;;;;;;;9.43;5.93;;;18.60;99.90;;;;;;5477330;26;20453;-57
2024/04/09 00:31:43;;;;;;;8.20;5.27;;;18.50;99.90;;;;;;5460912;26;20263;-55
2024/04/09 00:34:10;;;;;;;8.10;5.97;;;18.50;99.90;;;;;;5473643;26;20448;-54
2024/04/09 00:36:36;;;;;;;9.30;5.67;;;18.50;99.90;;;;;;5480366;26;20224;-53
2024/04/09 00:39:02;;;;;;;15.60;5.80;;;18.50;99.90;;;;;;5482154;26;20837;-55
2024/04/09 00:41:29;;;;;;;9.43;5.83;;;18.50;99.90;;;;;;5484408;26;20450;-54
2024/04/09 00:43:54;;;;;;;8.70;5.77;;;18.40;99.90;;;;;;5485729;26;20516;-53
2024/04/09 00:46:21;;;;;;;11.90;7.13;;;18.40;99.90;;;;;;5485121;26;20581;-54
2024/04/09 00:48:47;;;;;;;12.53;6.50;;;18.40;99.90;;;;;;5485008;26;20991;-51
2024/04/09 00:51:16;;;;;;;8.17;5.97;;;18.40;99.90;;;;;;5476321;26;20285;-57
2024/04/09 00:53:44;;;;;;;8.47;5.50;;;18.40;99.90;;;;;;5473500;26;20516;-55
2024/04/09 00:56:11;;;;;;;11.17;6.37;;;18.40;99.90;;;;;;5486121;26;20511;-58
2024/04/09 00:58:38;;;;;;;8.23;5.20;;;18.40;99.90;;;;;;5477732;26;20589;-52
2024/04/09 01:01:04;;;;;;;10.13;6.80;;;18.40;99.90;;;;;;5485075;26;20456;-52
2024/04/09 01:03:30;;;;;;;9.00;4.87;;;18.40;99.90;;;;;;5485212;26;20561;-56
2024/04/09 01:05:57;;;;;;;7.90;5.60;;;18.30;99.90;;;;;;5481676;26;20711;-57
2024/04/09 01:08:22;;;;;;;12.97;6.40;;;18.30;99.90;;;;;;5484681;26;20479;-56
2024/04/09 01:10:48;;;;;;;8.27;6.37;;;18.20;99.90;;;;;;5484397;26;20951;-55
2024/04/09 01:13:14;;;;;;;9.77;6.23;;;18.20;99.90;;;;;;5485063;26;20291;-50
2024/04/09 01:15:40;;;;;;;13.10;6.10;;;18.20;99.90;;;;;;5484596;26;21000;-55
2024/04/09 01:18:05;;;;;;;9.10;6.97;;;18.20;99.90;;;;;;5484750;26;20233;-55
2024/04/09 01:20:31;;;;;;;5.47;4.97;;;18.10;99.90;;;;;;5485854;26;20606;-56
2024/04/09 01:22:56;;;;;;;11.90;6.23;;;18.10;99.90;;;;;;5485495;26;20274;-51
2024/04/09 01:25:22;;;;;;;5.70;5.03;;;18.10;99.90;;;;;;5484490;26;20291;-53
2024/04/09 01:27:47;;;;;;;6.97;6.03;;;18.10;99.90;;;;;;5484967;26;20633;-55
2024/04/09 01:30:13;;;;;;;11.80;7.10;;;18.10;99.90;;;;;;5484365;26;20280;-56
2024/04/09 01:32:40;;;;;;;7.60;6.57;;;18.10;99.90;;;;;;5484920;26;20677;-54
2024/04/09 01:35:06;;;;;;;7.70;5.80;;;18.10;99.90;;;;;;5477128;26;20230;-57
2024/04/09 01:37:38;;;;;;;7.27;5.87;;;18.10;99.90;;;;;;5477466;26;20872;-57
2024/04/09 01:40:05;;;;;;;8.27;6.00;;;18.00;99.90;;;;;;5466215;26;20450;-58
2024/04/09 01:42:31;;;;;;;12.80;5.40;;;18.00;99.90;;;;;;5483280;26;20513;-55
2024/04/09 01:44:57;;;;;;;7.13;6.37;;;18.00;99.90;;;;;;5484306;26;20477;-58
2024/04/09 01:47:22;;;;;;;11.27;5.97;;;18.00;99.90;;;;;;5484254;26;20640;-58
2024/04/09 01:49:48;;;;;;;7.30;5.97;;;18.00;99.90;;;;;;5483354;26;20650;-52
2024/04/09 01:52:14;;;;;;;8.83;6.07;;;18.00;99.90;;;;;;5460151;26;20327;-53
2024/04/09 01:54:47;;;;;;;6.53;5.90;;;18.00;99.90;;;;;;5464966;26;20333;-55
2024/04/09 01:57:13;;;;;;;6.70;5.90;;;18.00;99.90;;;;;;5472082;26;20358;-57
2024/04/09 01:59:41;;;;;;;7.47;6.00;;;18.00;99.90;;;;;;5484057;26;20567;-60
2024/04/09 02:02:07;;;;;;;9.03;6.33;;;17.90;99.90;;;;;;5483526;26;20772;-56
2024/04/09 02:04:33;;;;;;;6.63;5.87;;;17.90;99.90;;;;;;5474890;26;20445;-60
2024/04/09 02:07:00;;;;;;;7.50;6.53;;;17.90;99.90;;;;;;5479859;26;21020;-56
2024/04/09 02:09:27;;;;;;;8.27;5.93;;;17.90;99.90;;;;;;5483132;26;20446;-56
2024/04/09 02:11:53;;;;;;;10.93;6.63;;;18.00;99.90;;;;;;5480475;26;20876;-57
2024/04/09 02:14:19;;;;;;;6.07;5.10;;;17.90;99.90;;;;;;5484442;26;20567;-57
2024/04/09 02:16:45;;;;;;;6.13;5.63;;;17.90;99.90;;;;;;5483654;26;20306;-54
2024/04/09 02:19:11;;;;;;;6.60;6.00;;;17.90;99.90;;;;;;5465842;26;20242;-55
2024/04/09 02:21:37;;;;;;;8.60;6.40;;;17.80;99.90;;;;;;5481380;26;20456;-56
2024/04/09 02:24:03;;;;;;;8.23;6.13;;;17.90;99.90;;;;;;5468569;26;20792;-57
2024/04/09 02:26:29;;;;;;;7.17;5.87;;;17.80;99.90;;;;;;5456430;26;20363;-55
2024/04/09 02:28:55;;;;;;;8.03;6.30;;;17.80;99.90;;;;;;5475725;26;20281;-54
2024/04/09 02:31:21;;;;;;;8.33;6.50;;;17.80;99.90;;;;;;5478942;26;20300;-53
2024/04/09 02:33:47;;;;;;;7.00;6.30;;;17.80;99.90;;;;;;5467673;26;21009;-55
2024/04/09 02:36:12;;;;;;;9.20;5.93;;;17.80;99.90;;;;;;5469269;26;20523;-55
2024/04/09 02:38:38;;;;;;;9.43;5.97;;;17.80;99.90;;;;;;5459407;26;20259;-56
2024/04/09 02:41:05;;;;;;;7.40;6.50;;;17.80;99.90;;;;;;5481114;26;20268;-54
2024/04/09 02:43:31;;;;;;;7.60;6.03;;;17.80;99.90;;;;;;5483192;26;20321;-51
2024/04/09 02:45:58;;;;;;;6.13;5.13;;;17.70;99.90;;;;;;5460338;26;20559;-59
2024/04/09 02:48:24;;;;;;;6.63;6.03;;;17.70;99.90;;;;;;5476405;26;20587;-54
2024/04/09 02:50:58;;;;;;;6.40;5.60;;;17.70;99.90;;;;;;5465204;26;20511;-54
2024/04/09 02:53:24;;;;;;;6.17;5.67;;;17.70;99.90;;;;;;5451137;26;20475;-54
2024/04/09 02:56:02;;;;;;;7.27;6.40;;;17.70;99.90;;;;;;5480493;26;20572;-58
2024/04/09 02:58:29;;;;;;;8.03;5.53;;;17.60;99.90;;;;;;5460002;26;20471;-57
2024/04/09 03:00:55;;;;;;;6.47;5.87;;;17.60;99.90;;;;;;5482255;26;20857;-56
2024/04/09 03:03:21;;;;;;;9.33;6.10;;;17.60;99.90;;;;;;5482728;26;20855;-53
2024/04/09 03:05:47;;;;;;;6.40;5.90;;;17.60;99.90;;;;;;5468204;26;20469;-61
2024/04/09 03:08:12;;;;;;;6.60;6.00;;;17.60;99.90;;;;;;5482358;26;20265;-57
2024/04/09 03:10:38;;;;;;;7.87;6.50;;;17.60;99.90;;;;;;5482759;26;20296;-58
2024/04/09 03:13:04;;;;;;;9.63;5.67;;;17.50;99.90;;;;;;5480257;26;20225;-57
2024/04/09 03:15:30;;;;;;;6.40;5.73;;;17.60;99.90;;;;;;5483530;26;20230;-54
2024/04/09 03:17:56;;;;;;;9.27;6.03;;;17.60;99.90;;;;;;5482749;26;20450;-56
2024/04/09 03:20:21;;;;;;;6.97;6.47;;;17.50;99.90;;;;;;5483513;26;20498;-54
2024/04/09 03:22:47;;;;;;;7.73;6.27;;;17.50;99.90;;;;;;5466244;26;20254;-57
2024/04/09 03:25:13;;;;;;;12.63;6.47;;;17.40;99.90;;;;;;5470100;26;20596;-56
2024/04/09 03:27:38;;;;;;;8.13;6.23;;;17.40;99.90;;;;;;5473179;26;20241;-58
2024/04/09 03:30:04;;;;;;;8.50;7.00;;;17.40;99.90;;;;;;5468248;26;20342;-58
2024/04/09 03:32:30;;;;;;;19.93;7.00;;;17.30;99.90;;;;;;5478635;26;20228;-55
2024/04/09 03:34:56;;;;;;;8.27;6.50;;;17.30;99.90;;;;;;5483716;26;20925;-58
2024/04/09 03:37:22;;;;;;;6.27;5.57;;;17.20;99.90;;;;;;5443164;26;20465;-58
2024/04/09 03:39:48;;;;;;;9.40;6.53;;;17.20;99.90;;;;;;5476592;26;20639;-54
2024/04/09 03:42:14;;;;;;;7.23;6.03;;;17.10;99.90;;;;;;5468382;26;20346;-56
2024/04/09 03:44:39;;;;;;;13.20;7.33;;;17.10;99.90;;;;;;5481674;26;20461;-53
2024/04/09 03:47:05;;;;;;;8.53;6.80;;;17.00;99.90;;;;;;5468443;26;20444;-54
2024/04/09 03:49:32;;;;;;;8.67;7.73;;;17.00;99.90;;;;;;5482440;26;20688;-55
2024/04/09 03:51:58;;;;;;;7.37;6.67;;;16.90;99.90;;;;;;5470666;26;20557;-56
2024/04/09 03:54:23;;;;;;;10.10;6.33;;;16.90;99.90;;;;;;5472133;26;20550;-54
2024/04/09 03:56:49;;;;;;;7.47;6.83;;;16.90;99.90;;;;;;5483814;26;20223;-55
2024/04/09 03:59:15;;;;;;;6.83;6.13;;;16.80;99.90;;;;;;5463504;26;20300;-58
2024/04/09 04:01:41;;;;;;;7.40;6.10;;;16.80;99.90;;;;;;5484893;26;20229;-53
2024/04/09 04:04:06;;;;;;;6.97;6.27;;;16.80;99.90;;;;;;5485532;26;20230;-56
2024/04/09 04:06:32;;;;;;;8.20;6.70;;;16.80;99.90;;;;;;5480216;26;20274;-55
2024/04/09 04:08:57;;;;;;;7.90;7.17;;;16.80;99.90;;;;;;5481452;26;20709;-58
2024/04/09 04:11:23;;;;;;;6.53;6.00;;;16.70;99.90;;;;;;5482031;26;20646;-56
2024/04/09 04:13:48;;;;;;;8.83;6.60;;;16.70;99.90;;;;;;5482413;26;20798;-56
2024/04/09 04:16:15;;;;;;;10.37;9.27;;;16.70;99.90;;;;;;5484450;26;20245;-52
2024/04/09 04:18:43;;;;;;;7.67;6.37;;;16.70;99.90;;;;;;5485456;26;20314;-58
2024/04/09 04:21:12;;;;;;;7.90;7.07;;;16.70;99.90;;;;;;5485394;26;20519;-57
2024/04/09 04:23:39;;;;;;;7.57;6.33;;;16.60;99.90;;;;;;5478684;26;20504;-57
2024/04/09 04:26:09;;;;;;;7.90;6.00;;;16.60;99.90;;;;;;5482548;26;20466;-55
2024/04/09 04:28:37;;;;;;;7.47;5.80;;;16.60;99.90;;;;;;5485051;26;20455;-51
2024/04/09 04:31:07;;;;;;;6.87;6.20;;;16.60;99.90;;;;;;5459661;26;20685;-57
2024/04/09 04:33:32;;;;;;;7.30;6.60;;;16.60;99.90;;;;;;5469959;26;21067;-58
2024/04/09 04:35:58;;;;;;;9.57;6.47;;;16.60;99.90;;;;;;5471247;26;20510;-57
2024/04/09 04:38:25;;;;;;;7.43;6.30;;;16.60;99.90;;;;;;5459505;26;20242;-61
2024/04/09 04:40:51;;;;;;;7.30;5.87;;;16.70;99.90;;;;;;5470387;26;20451;-56
2024/04/09 04:43:17;;;;;;;7.37;6.60;;;16.70;99.90;;;;;;5484995;26;20507;-53
2024/04/09 04:45:44;;;;;;;6.57;5.97;;;16.70;99.90;;;;;;5467955;26;20651;-54
2024/04/09 04:48:10;;;;;;;6.87;6.27;;;16.80;99.90;;;;;;5476417;26;20472;-53
2024/04/09 04:50:39;;;;;;;7.97;6.50;;;16.80;99.90;;;;;;5483408;26;21173;-55
2024/04/09 04:53:06;;;;;;;9.77;6.50;;;16.90;99.90;;;;;;5478007;26;20483;-55
2024/04/09 04:55:32;;;;;;;6.67;6.00;;;16.90;99.90;;;;;;5483949;26;20820;-60
2024/04/09 04:57:59;;;;;;;8.60;6.10;;;17.00;99.90;;;;;;5460159;26;20527;-58
2024/04/09 05:00:26;;;;;;;6.93;6.23;;;17.00;99.90;;;;;;5474072;26;20521;-58
2024/04/09 05:02:51;;;;;;;5.90;5.40;;;17.10;99.90;;;;;;5482417;26;20599;-59
2024/04/09 05:05:17;;;;;;;6.83;6.23;;;17.10;99.90;;;;;;5481772;26;20973;-53
2024/04/09 05:07:43;;;;;;;6.90;6.20;;;17.20;99.90;;;;;;5492515;25;20249;-56
2024/04/09 05:10:12;;;;;;;6.70;6.13;;;17.20;99.90;;;;;;5476684;26;20363;-58
2024/04/09 05:12:49;;;;;;;6.73;6.13;;;17.20;99.90;;;;;;5485123;26;20580;-56
2024/04/09 05:15:15;;;;;;;8.70;6.37;;;17.30;99.90;;;;;;5482865;26;20474;-56
2024/04/09 05:17:41;;;;;;;10.77;6.80;;;17.30;99.90;;;;;;5474109;26;20953;-58
2024/04/09 05:20:10;;;;;;;11.47;6.20;;;17.30;99.90;;;;;;5484676;26;20551;-55
2024/04/09 05:22:38;;;;;;;6.90;6.07;;;17.40;99.90;;;;;;5484681;26;20465;-50
2024/04/09 05:25:05;;;;;;;6.03;5.43;;;17.40;99.90;;;;;;5484681;26;20454;-52
2024/04/09 05:27:31;;;;;;;7.63;6.20;;;17.40;99.90;;;;;;5484959;26;20520;-55
2024/04/09 05:29:56;;;;;;;7.60;5.90;;;17.40;99.90;;;;;;5484975;26;20845;-53
2024/04/09 05:32:22;;;;;;;8.13;6.30;;;17.50;99.90;;;;;;5485612;26;20450;-56
2024/04/09 05:34:48;;;;;;;6.17;5.23;;;17.50;99.90;;;;;;5470058;26;20233;-54
2024/04/09 05:37:15;;;;;;;6.63;6.00;;;17.50;99.90;;;;;;5478435;26;20507;-55
2024/04/09 05:39:42;;;;;;;7.30;6.27;;;17.60;99.90;;;;;;5469213;26;20408;-60
2024/04/09 05:42:09;;;;;;;7.50;6.80;;;17.70;99.90;;;;;;5464890;26;20516;-58
2024/04/09 05:44:35;;;;;;;7.13;6.40;;;17.80;99.90;;;;;;5485540;26;20505;-55
2024/04/09 05:47:00;;;;;;;8.27;6.10;;;17.90;99.90;;;;;;5485324;26;20454;-58
2024/04/09 05:49:26;;;;;;;7.03;6.27;;;18.00;99.90;;;;;;5475091;26;20534;-58
2024/04/09 05:51:51;;;;;;;6.77;5.90;;;18.20;99.90;;;;;;5477742;26;20239;-59
2024/04/09 05:54:18;;;;;;;7.30;5.77;;;18.30;99.90;;;;;;5474592;26;20563;-55
2024/04/09 05:56:48;;;;;;;8.37;5.97;;;18.50;99.90;;;;;;5480998;26;20274;-51
2024/04/09 05:59:14;;;;;;;10.63;5.70;;;18.60;99.90;;;;;;5482478;26;21007;-57
2024/04/09 06:01:40;;;;;;;10.43;7.00;;;18.80;99.90;;;;;;5471720;26;20603;-56
2024/04/09 06:04:05;;;;;;;7.53;6.63;;;18.80;99.90;;;;;;5472797;26;20234;-58
2024/04/09 06:06:31;;;;;;;10.67;6.07;;;18.90;99.90;;;;;;5479873;26;20244;-55
2024/04/09 06:08:57;;;;;;;9.53;6.43;;;19.00;99.90;;;;;;5482703;26;20236;-53
2024/04/09 06:11:22;;;;;;;10.50;6.73;;;19.10;99.90;;;;;;5483422;26;20230;-55
2024/04/09 06:13:52;;;;;;;8.63;6.13;;;19.20;99.90;;;;;;5468766;26;20662;-55
2024/04/09 06:16:18;;;;;;;6.30;5.70;;;19.10;99.90;;;;;;5481058;26;20351;-55
2024/04/09 06:18:44;;;;;;;14.43;5.67;;;19.20;99.90;;;;;;5479336;26;20462;-58
2024/04/09 06:21:09;;;;;;;11.00;7.00;;;19.30;99.90;;;;;;5480311;26;20456;-54
2024/04/09 06:23:35;;;;;;;6.10;5.60;;;19.60;99.90;;;;;;5482063;26;20223;-55
2024/04/09 06:26:01;;;;;;;6.90;6.40;;;19.70;99.90;;;;;;5484461;26;20329;-51
2024/04/09 06:28:27;;;;;;;8.00;5.00;;;19.90;99.90;;;;;;5484227;26;20232;-55
2024/04/09 06:30:52;;;;;;;6.40;5.90;;;19.90;99.90;;;;;;5484820;26;20461;-55
2024/04/09 06:33:18;;;;;;;6.90;6.20;;;19.90;99.90;;;;;;5484843;26;20329;-55
2024/04/09 06:35:44;;;;;;;6.93;5.33;;;20.00;99.90;;;;;;5475250;26;20272;-56
2024/04/09 06:38:10;;;;;;;10.00;5.43;;;20.20;99.90;;;;;;5466924;26;20479;-56
2024/04/09 06:40:36;;;;;;;10.27;4.80;;;20.40;99.90;;;;;;5480526;26;20310;-55
2024/04/09 06:43:02;;;;;;;6.23;4.90;;;20.40;99.90;;;;;;5483369;26;20270;-55
2024/04/09 06:45:28;;;;;;;6.17;5.03;;;20.50;99.90;;;;;;5484150;26;20575;-54
2024/04/09 06:47:54;;;;;;;8.10;4.73;;;20.70;99.90;;;;;;5483234;26;20570;-53
2024/04/09 06:50:20;;;;;;;6.20;4.20;;;20.70;99.90;;;;;;5468870;26;20453;-56
2024/04/09 06:52:45;;;;;;;5.30;4.70;;;21.00;99.90;;;;;;5473361;26;20526;-56
2024/04/09 06:55:11;;;;;;;4.80;4.40;;;21.10;99.90;;;;;;5476260;26;20222;-55
2024/04/09 06:57:37;;;;;;;6.90;4.60;;;21.10;99.90;;;;;;5471916;26;20237;-59
2024/04/09 07:00:04;;;;;;;7.23;4.53;;;21.30;99.90;;;;;;5479598;26;20225;-60
2024/04/09 07:02:30;;;;;;;8.00;4.67;;;21.40;99.90;;;;;;5483358;26;20517;-59
2024/04/09 07:04:55;;;;;;;5.77;4.57;;;21.60;99.90;;;;;;5475062;26;20449;-60
2024/04/09 07:07:22;;;;;;;5.27;4.73;;;22.00;99.90;;;;;;5468941;26;20524;-59
2024/04/09 07:09:49;;;;;;;5.27;4.03;;;22.20;99.90;;;;;;5468752;26;21816;-58
2024/04/09 07:12:15;;;;;;;7.17;4.63;;;22.10;99.90;;;;;;5458385;26;20455;-59
2024/04/09 07:14:41;;;;;;;5.07;3.77;;;22.20;99.90;;;;;;5472202;26;20452;-58
2024/04/09 07:17:06;;;;;;;6.60;5.03;;;22.50;99.90;;;;;;5477170;26;20894;-55
2024/04/09 07:19:32;;;;;;;5.87;4.40;;;22.70;99.90;;;;;;5458605;26;20286;-59
2024/04/09 07:21:57;;;;;;;5.43;4.53;;;22.80;99.90;;;;;;5444110;26;20789;-58
2024/04/09 07:24:23;;;;;;;4.40;3.80;;;22.60;99.90;;;;;;5472881;26;20220;-64
2024/04/09 07:26:48;;;;;;;3.93;3.63;;;22.90;99.90;;;;;;5482079;26;20218;-57
2024/04/09 07:29:14;;;;;;;4.20;3.80;;;23.30;99.90;;;;;;5471882;26;20419;-61
2024/04/09 07:31:40;;;;;;;5.20;4.70;;;23.30;99.90;;;;;;5482546;26;20233;-63
2024/04/09 07:34:05;;;;;;;6.00;3.90;;;23.20;99.90;;;;;;5469078;26;20261;-59
2024/04/09 07:36:31;;;;;;;4.87;4.40;;;23.30;99.90;;;;;;5482440;26;20221;-59
2024/04/09 07:38:57;;;;;;;5.67;4.00;;;23.60;99.90;;;;;;5468619;26;20225;-59
2024/04/09 07:41:23;;;;;;;5.00;4.50;;;23.70;99.90;;;;;;5479410;26;20505;-57
2024/04/09 07:43:55;;;;;;;4.90;3.93;;;23.80;99.90;;;;;;5469006;26;20225;-54
2024/04/09 07:46:24;;;;;;;5.83;4.50;;;23.70;99.90;;;;;;5474406;26;20457;-61
2024/04/09 07:48:50;;;;;;;5.10;4.23;;;23.90;99.90;;;;;;5481388;26;20479;-61
2024/04/09 07:51:15;;;;;;;6.10;4.60;;;23.70;99.90;;;;;;5469873;26;20527;-61
2024/04/09 07:53:41;;;;;;;4.90;4.07;;;23.50;99.90;;;;;;5482510;26;20798;-65
2024/04/09 07:56:12;;;;;;;5.23;4.13;;;23.50;99.90;;;;;;5484047;26;20707;-62
2024/04/09 07:58:38;;;;;;;4.13;3.70;;;23.50;99.90;;;;;;5484670;26;20242;-60
2024/04/09 08:01:04;;;;;;;3.60;3.30;;;23.90;99.90;;;;;;5482937;26;20447;-60
2024/04/09 08:03:30;;;;;;;7.63;4.50;;;24.00;99.90;;;;;;5483642;26;20503;-61
2024/04/09 08:05:55;;;;;;;3.97;3.67;;;24.00;99.90;;;;;;5482966;26;20341;-68
2024/04/09 08:08:21;;;;;;;4.90;3.47;;;23.60;99.90;;;;;;5469265;26;20355;-61
2024/04/09 08:10:48;;;;;;;4.40;3.90;;;24.00;99.90;;;;;;5469778;26;20763;-62
2024/04/09 08:13:14;;;;;;;4.07;3.67;;;24.50;99.90;;;;;;5467635;26;23288;-62
2024/04/09 08:15:40;;;;;;;8.50;3.50;;;24.20;99.90;;;;;;5458559;26;20507;-59
2024/04/09 08:18:05;;;;;;;7.60;3.80;;;24.10;99.90;;;;;;5478343;26;20226;-60
2024/04/09 08:20:31;;;;;;;8.60;3.73;;;24.60;99.90;;;;;;5479221;26;20264;-60
2024/04/09 08:22:57;;;;;;;4.13;3.83;;;24.40;99.90;;;;;;5479939;26;20226;-62
2024/04/09 08:25:22;;;;;;;6.63;3.20;;;24.70;99.90;;;;;;5479887;26;20446;-60
2024/04/09 08:27:49;;;;;;;3.57;3.27;;;25.20;99.30;;;;;;5482147;26;20326;-61
2024/04/09 08:30:21;;;;;;;9.00;3.23;;;25.50;97.30;;;;;;5481818;26;20238;-60
2024/04/09 08:32:46;;;;;;;6.47;4.43;;;25.40;97.00;;;;;;5463512;26;20528;-59
2024/04/09 08:35:13;;;;;;;3.87;3.50;;;25.30;97.90;;;;;;5476828;26;20557;-60
2024/04/09 08:37:44;;;;;;;3.50;3.20;;;25.10;98.30;;;;;;5475166;26;20428;-59
2024/04/09 08:40:10;;;;;;;6.97;3.63;;;25.50;97.80;;;;;;5468682;26;20463;-61
2024/04/09 08:42:38;;;;;;;9.73;3.77;;;25.80;96.60;;;;;;5484275;26;20790;-60
2024/04/09 08:45:12;;;;;;;5.60;3.67;;;26.00;95.40;;;;;;5485449;26;20624;-60
2024/04/09 08:47:38;;;;;;;5.80;3.70;;;26.60;94.40;;;;;;5473701;26;20970;-61
2024/04/09 08:50:04;;;;;;;4.37;3.40;;;26.60;93.70;;;;;;5485738;26;20569;-59
2024/04/09 08:52:32;;;;;;;7.83;3.57;;;26.40;94.70;;;;;;5486179;26;20910;-61
2024/04/09 08:54:58;;;;;;;7.63;4.27;;;26.20;95.50;;;;;;5485986;26;20534;-60
2024/04/09 08:57:23;;;;;;;3.67;3.27;;;26.50;96.00;;;;;;5483555;26;20517;-61
2024/04/09 08:59:50;;;;;;;3.60;3.30;;;27.00;92.80;;;;;;5486974;26;20230;-63
2024/04/09 09:02:16;;;;;;;5.03;3.20;;;26.60;92.70;;;;;;5475295;26;20312;-62
2024/04/09 09:04:43;;;;;;;10.40;3.63;;;26.70;93.50;;;;;;5471506;26;21036;-64
2024/04/09 09:07:19;;;;;;;4.77;3.03;;;27.10;93.30;;;;;;5468769;26;20459;-61
2024/04/09 09:09:47;;;;;;;7.60;3.63;;;27.20;92.20;;;;;;5490744;26;20548;-63
2024/04/09 09:12:14;;;;;;;4.10;3.40;;;26.50;93.90;;;;;;5483685;26;20504;-63
2024/04/09 09:14:54;;;;;;;3.80;3.40;;;27.20;92.70;;;;;;5477660;26;20464;-63
2024/04/09 09:17:20;;;;;;;3.90;3.23;;;27.50;90.50;;;;;;5489680;26;20552;-62
2024/04/09 09:19:55;;;;;;;7.17;3.60;;;27.70;89.80;;;;;;5471280;26;20526;-63
2024/04/09 09:22:21;;;;;;;6.40;3.33;;;27.80;87.30;;;;;;5478533;26;20921;-63
2024/04/09 09:24:46;;;;;;;5.30;3.17;;;26.80;90.70;;;;;;5481683;26;20501;-61
2024/04/09 09:27:12;;;;;;;4.63;3.10;;;27.00;92.10;;;;;;5483668;26;20306;-61
2024/04/09 09:29:38;;;;;;;3.77;2.97;;;27.50;89.40;;;;;;5479719;26;20238;-60
2024/04/09 09:32:12;;;;;;;11.10;3.47;;;26.80;91.10;;;;;;5476070;26;20234;-60
2024/04/09 09:34:42;;;;;;;6.03;3.17;;;27.40;90.10;;;;;;5485336;26;20268;-61
2024/04/09 09:37:11;;;;;;;10.10;3.60;;;27.80;88.90;;;;;;5476737;26;20507;-61
2024/04/09 09:39:41;;;;;;;5.60;3.23;;;28.00;89.70;;;;;;5484969;26;20601;-61
2024/04/09 09:42:11;;;;;;;8.67;3.97;;;27.50;90.40;;;;;;5485969;26;20985;-64
2024/04/09 09:44:41;;;;;;;4.07;3.10;;;27.20;92.10;;;;;;5485680;26;20528;-61
2024/04/09 09:47:08;;;;;;;7.07;4.13;;;27.30;90.40;;;;;;5485313;26;20808;-68
2024/04/09 09:49:35;;;;;;;3.80;3.17;;;27.40;91.20;;;;;;5471612;26;20581;-61
2024/04/09 09:52:02;;;;;;;5.20;3.80;;;27.30;91.70;;;;;;5472910;26;20554;-60
2024/04/09 09:54:28;;;;;;;6.17;2.90;;;27.80;90.30;;;;;;5452292;26;21277;-60
2024/04/09 09:57:04;;;;;;;9.00;3.60;;;28.10;87.00;;;;;;5480017;26;20515;-60
2024/04/09 09:59:35;;;;;;;3.40;2.83;;;27.30;90.40;;;;;;5480351;26;20980;-60
2024/04/09 10:02:03;;;;;;;4.43;3.03;;;27.20;90.90;;;;;;5466704;26;20509;-60
2024/04/09 10:04:29;;;;;;;5.17;3.57;;;27.10;88.50;;;;;;5477420;26;20467;-64
2024/04/09 10:06:56;;;;;;;7.83;3.60;;;26.60;90.40;;;;;;5487839;26;20933;-65
2024/04/09 10:09:40;;;;;;;7.50;4.00;;;26.70;90.70;;;;;;5483767;26;20226;-62
2024/04/09 10:12:09;;;;;;;10.00;3.90;;;26.70;90.80;;;;;;5478039;26;20470;-61
2024/04/09 10:14:38;;;;;;;5.20;3.47;;;27.00;90.10;;;;;;5477535;26;20451;-62
2024/04/09 10:17:13;;;;;;;7.73;3.30;;;27.10;90.90;;;;;;5470513;26;20663;-65
2024/04/09 10:19:41;;;;;;;5.47;3.50;;;27.40;86.00;;;;;;5477053;26;20518;-61
2024/04/09 10:22:06;;;;;;;4.60;3.00;;;27.50;84.00;;;;;;5479926;26;20451;-62
2024/04/09 10:24:35;;;;;;;7.47;3.33;;;27.30;86.50;;;;;;5468223;26;20515;-60
2024/04/09 10:27:01;;;;;;;6.00;2.73;;;26.90;87.80;;;;;;5479481;26;20230;-62
2024/04/09 10:29:29;;;;;;;5.67;3.33;;;26.70;91.30;;;;;;5473670;26;20591;-61
2024/04/09 10:31:55;;;;;;;10.00;4.53;;;26.60;90.80;;;;;;5483741;26;20545;-61
2024/04/09 10:34:26;;;;;;;7.10;3.77;;;26.70;91.70;;;;;;5469212;26;20479;-63
2024/04/09 10:36:56;;;;;;;7.80;3.47;;;26.90;87.50;;;;;;5473182;26;20241;-65
2024/04/09 10:39:24;;;;;;;6.13;3.43;;;26.90;87.10;;;;;;5481585;26;20471;-60
2024/04/09 10:41:56;;;;;;;5.07;3.40;;;27.20;87.90;;;;;;5478952;26;21000;-60
2024/04/09 10:44:24;;;;;;;7.73;2.90;;;27.30;84.00;;;;;;5469142;26;20871;-63
2024/04/09 10:46:50;;;;;;;5.67;3.47;;;27.10;84.00;;;;;;5476065;26;20519;-61
2024/04/09 10:49:17;;;;;;;6.90;3.70;;;27.20;86.80;;;;;;5483678;26;20459;-61
2024/04/09 10:51:44;;;;;;;6.70;4.13;;;27.40;84.20;;;;;;5484917;26;20516;-61
2024/04/09 10:54:13;;;;;;;6.23;3.17;;;27.40;84.60;;;;;;5484794;26;20526;-60
2024/04/09 10:56:39;;;;;;;7.93;3.10;;;27.20;85.40;;;;;;5481822;26;20984;-60
2024/04/09 10:59:21;;;;;;;4.80;3.23;;;27.10;89.40;;;;;;5477586;26;20463;-61
2024/04/09 11:01:47;;;;;;;6.60;3.30;;;27.00;88.50;;;;;;5476266;26;20226;-61
2024/04/09 11:04:13;;;;;;;6.67;3.80;;;27.30;84.40;;;;;;5478522;26;20539;-60
2024/04/09 11:06:41;;;;;;;4.60;3.30;;;27.20;85.30;;;;;;5467969;26;20233;-60
2024/04/09 11:09:07;;;;;;;4.73;4.07;;;26.80;89.10;;;;;;5459398;26;20329;-60
2024/04/09 11:11:34;;;;;;;7.80;3.80;;;27.10;86.40;;;;;;5469433;26;20456;-60
2024/04/09 11:14:01;;;;;;;5.80;3.40;;;27.10;87.00;;;;;;5468897;26;20273;-59
2024/04/09 11:16:27;;;;;;;8.43;3.83;;;27.00;90.50;;;;;;5484627;26;20537;-61
2024/04/09 11:18:59;;;;;;;6.43;3.97;;;27.10;87.00;;;;;;5483242;26;20455;-61
2024/04/09 11:21:30;;;;;;;8.70;3.17;;;26.90;88.40;;;;;;5460203;26;20227;-61
2024/04/09 11:23:56;;;;;;;5.50;3.27;;;27.00;90.40;;;;;;5481802;26;20452;-61
2024/04/09 11:26:22;;;;;;;4.57;3.47;;;27.20;88.00;;;;;;5481046;26;20451;-61
2024/04/09 11:28:54;;;;;;;7.77;3.40;;;27.30;86.40;;;;;;5482218;26;20291;-60
2024/04/09 11:31:24;;;;;;;4.50;3.33;;;27.50;84.20;;;;;;5483623;26;20455;-60
2024/04/09 11:33:50;;;;;;;6.33;3.63;;;27.50;86.30;;;;;;5483771;26;20471;-61
2024/04/09 11:36:16;;;;;;;6.03;3.77;;;27.40;86.70;;;;;;5470877;26;20471;-61
2024/04/09 11:38:42;;;;;;;4.83;3.43;;;27.20;83.70;;;;;;5483791;26;20534;-61
2024/04/09 11:41:08;;;;;;;8.80;3.70;;;27.20;84.80;;;;;;5483913;26;20569;-59
2024/04/09 11:43:34;;;;;;;12.07;4.87;;;27.40;83.10;;;;;;5483666;26;20277;-61
2024/04/09 11:46:01;;;;;;;12.63;4.90;;;27.50;83.90;;;;;;5483611;26;20452;-61
2024/04/09 11:48:27;;;;;;;11.97;5.27;;;27.30;84.60;;;;;;5484178;26;20603;-59
2024/04/09 11:50:52;;;;;;;11.07;4.83;;;27.50;87.00;;;;;;5485263;26;20466;-59
2024/04/09 11:53:18;;;;;;;5.77;4.20;;;27.70;86.30;;;;;;5477616;26;20661;-60
2024/04/09 11:55:44;;;;;;;7.10;3.53;;;27.80;84.70;;;;;;5483719;26;20226;-59
2024/04/09 11:58:10;;;;;;;7.57;2.93;;;27.90;80.70;;;;;;5482559;26;20248;-59
2024/04/09 12:00:36;;;;;;;10.30;3.43;;;27.50;83.70;;;;;;5482098;26;20451;-60
2024/04/09 12:03:03;;;;;;;9.30;3.63;;;27.50;85.10;;;;;;5482762;26;20516;-60
2024/04/09 12:05:29;;;;;;;6.37;3.57;;;27.60;83.70;;;;;;5482574;26;20353;-61
2024/04/09 12:07:55;;;;;;;7.77;4.50;;;27.60;82.90;;;;;;5484061;26;20512;-61
2024/04/09 12:10:22;;;;;;;3.90;3.20;;;27.70;84.20;;;;;;5484859;26;20454;-61
2024/04/09 12:12:48;;;;;;;10.20;4.07;;;27.60;83.10;;;;;;5487667;26;20522;-61
2024/04/09 12:15:14;;;;;;;6.50;4.33;;;27.60;83.80;;;;;;5487400;26;20508;-61
2024/04/09 12:17:42;;;;;;;12.93;6.40;;;27.50;80.30;;;;;;5487862;26;20761;-60
2024/04/09 12:20:08;;;;;;;9.57;5.20;;;27.60;78.50;;;;;;5488470;26;20557;-61
2024/04/09 12:22:34;;;;;;;6.23;4.00;;;28.00;79.80;;;;;;5486327;26;20558;-60
2024/04/09 12:24:59;;;;;;;14.13;5.03;;;28.00;76.90;;;;;;5486635;26;20348;-59
2024/04/09 12:27:25;;;;;;;14.50;4.57;;;27.80;79.70;;;;;;5482163;26;20274;-60
2024/04/09 12:29:51;;;;;;;8.50;4.23;;;27.80;74.70;;;;;;5480419;26;20235;-60
2024/04/09 12:32:17;;;;;;;8.90;3.90;;;27.60;72.10;;;;;;5478112;26;20429;-60
2024/04/09 12:34:43;;;;;;;10.10;3.80;;;27.40;72.60;;;;;;5486398;26;20577;-60
2024/04/09 12:37:08;;;;;;;7.97;4.23;;;27.20;73.90;;;;;;5477362;26;20231;-59
2024/04/09 12:39:34;;;;;;;10.00;4.27;;;27.20;75.00;;;;;;5485409;26;20576;-59
2024/04/09 12:42:00;;;;;;;9.00;4.63;;;27.20;76.60;;;;;;5487185;26;20330;-60
2024/04/09 12:44:26;;;;;;;9.73;3.83;;;27.20;78.20;;;;;;5483326;26;20708;-56